sensor_id;sensor_type;location;lat;lon;timestamp;pressure;altitude;pressure_sealevel;temperature;humidity
46087;BME280;31824;49.648;8.640;2023-02-19T00:00:36;100865.00;;;9.98;100.00
46087;BME280;31824;49.648;8.640;2023-02-19T00:03:38;100857.25;;;9.91;100.00
46087;BME280;31824;49.648;8.640;2023-02-19T00:06:42;100849.53;;;9.92;100.00
46087;BME280;31824;49.648;8.640;2023-02-19T00:09:45;100836.75;;;9.95;100.00
46087;BME280;31824;49.648;8.640;2023-02-19T00:12:47;100852.38;;;10.03;100.00
46087;BME280;31824;49.648;8.640;2023-02-19T00:15:49;100850.66;;;10.03;100.00
46087;BME280;31824;49.648;8.640;2023-02-19T00:18:52;100852.50;;;9.95;100.00
46087;BME280;31824;49.648;8.640;2023-02-19T00:21:54;100849.06;;;9.88;100.00
46087;BME280;31824;49.648;8.640;2023-02-19T00:24:57;100836.91;;;9.97;100.00
46087;BME280;31824;49.648;8.640;2023-02-19T00:27:59;100851.56;;;9.95;100.00
46087;BME280;31824;49.648;8.640;2023-02-19T00:31:04;100848.38;;;10.06;100.00
46087;BME280;31824;49.648;8.640;2023-02-19T00:34:06;100845.25;;;10.02;100.00
46087;BME280;31824;49.648;8.640;2023-02-19T00:37:10;100852.66;;;9.97;100.00
46087;BME280;31824;49.648;8.640;2023-02-19T00:40:14;100853.25;;;9.94;100.00
46087;BME280;31824;49.648;8.640;2023-02-19T00:43:16;100849.22;;;9.89;100.00
46087;BME280;31824;49.648;8.640;2023-02-19T00:46:19;100840.28;;;9.96;100.00
46087;BME280;31824;49.648;8.640;2023-02-19T00:49:24;100843.22;;;9.90;100.00
46087;BME280;31824;49.648;8.640;2023-02-19T00:52:25;100846.75;;;9.91;100.00
46087;BME280;31824;49.648;8.640;2023-02-19T00:55:28;100841.81;;;9.94;100.00
46087;BME280;31824;49.648;8.640;2023-02-19T00:58:32;100835.66;;;9.93;100.00
46087;BME280;31824;49.648;8.640;2023-02-19T01:01:34;100836.91;;;9.97;100.00
46087;BME280;31824;49.648;8.640;2023-02-19T01:04:36;100842.78;;;9.94;100.00
46087;BME280;31824;49.648;8.640;2023-02-19T01:07:38;100848.31;;;9.89;100.00
46087;BME280;31824;49.648;8.640;2023-02-19T01:10:43;100855.06;;;9.87;100.00
46087;BME280;31824;49.648;8.640;2023-02-19T01:13:45;100852.00;;;9.91;100.00
46087;BME280;31824;49.648;8.640;2023-02-19T01:16:46;100858.50;;;9.94;100.00
46087;BME280;31824;49.648;8.640;2023-02-19T01:19:48;100839.19;;;9.94;100.00
46087;BME280;31824;49.648;8.640;2023-02-19T01:22:50;100838.56;;;9.88;100.00
46087;BME280;31824;49.648;8.640;2023-02-19T01:25:53;100822.22;;;9.90;100.00
46087;BME280;31824;49.648;8.640;2023-02-19T01:28:55;100825.75;;;9.91;100.00
46087;BME280;31824;49.648;8.640;2023-02-19T01:31:57;100825.59;;;9.89;100.00
46087;BME280;31824;49.648;8.640;2023-02-19T01:34:59;100822.31;;;9.83;100.00
46087;BME280;31824;49.648;8.640;2023-02-19T01:38:01;100821.25;;;9.81;100.00
46087;BME280;31824;49.648;8.640;2023-02-19T01:41:06;100826.50;;;9.81;100.00
46087;BME280;31824;49.648;8.640;2023-02-19T01:47:45;100814.88;;;9.79;100.00
46087;BME280;31824;49.648;8.640;2023-02-19T01:50:51;100818.31;;;9.78;100.00
46087;BME280;31824;49.648;8.640;2023-02-19T01:53:58;100817.03;;;9.74;100.00
46087;BME280;31824;49.648;8.640;2023-02-19T01:57:05;100813.50;;;9.74;100.00
46087;BME280;31824;49.648;8.640;2023-02-19T02:00:11;100815.78;;;9.71;100.00
46087;BME280;31824;49.648;8.640;2023-02-19T02:03:16;100808.34;;;9.67;100.00
46087;BME280;31824;49.648;8.640;2023-02-19T02:06:22;100812.69;;;9.66;100.00
46087;BME280;31824;49.648;8.640;2023-02-19T02:09:26;100807.28;;;9.65;100.00
46087;BME280;31824;49.648;8.640;2023-02-19T02:12:52;100808.63;;;9.61;100.00
46087;BME280;31824;49.648;8.640;2023-02-19T02:16:04;100798.91;;;9.60;100.00
46087;BME280;31824;49.648;8.640;2023-02-19T02:19:20;100799.69;;;9.59;100.00
46087;BME280;31824;49.648;8.640;2023-02-19T02:22:27;100804.00;;;9.58;100.00
46087;BME280;31824;49.648;8.640;2023-02-19T02:25:47;100793.34;;;9.57;100.00
46087;BME280;31824;49.648;8.640;2023-02-19T02:29:18;100788.84;;;9.56;100.00
46087;BME280;31824;49.648;8.640;2023-02-19T02:32:24;100792.44;;;9.56;100.00
46087;BME280;31824;49.648;8.640;2023-02-19T02:35:31;100785.78;;;9.60;100.00
46087;BME280;31824;49.648;8.640;2023-02-19T02:38:37;100787.19;;;9.65;100.00
46087;BME280;31824;49.648;8.640;2023-02-19T02:41:41;100772.84;;;9.61;100.00
46087;BME280;31824;49.648;8.640;2023-02-19T02:44:44;100776.56;;;9.63;100.00
46087;BME280;31824;49.648;8.640;2023-02-19T02:48:17;100762.06;;;9.67;100.00
46087;BME280;31824;49.648;8.640;2023-02-19T02:51:25;100771.47;;;9.65;100.00
46087;BME280;31824;49.648;8.640;2023-02-19T02:54:35;100767.16;;;9.66;100.00
46087;BME280;31824;49.648;8.640;2023-02-19T02:57:56;100758.19;;;9.63;100.00
46087;BME280;31824;49.648;8.640;2023-02-19T03:01:01;100771.91;;;9.61;100.00
46087;BME280;31824;49.648;8.640;2023-02-19T03:04:29;100747.69;;;9.55;100.00
46087;BME280;31824;49.648;8.640;2023-02-19T03:07:36;100744.44;;;9.57;100.00
46087;BME280;31824;49.648;8.640;2023-02-19T03:10:40;100748.16;;;9.59;100.00
46087;BME280;31824;49.648;8.640;2023-02-19T03:13:44;100745.69;;;9.61;100.00
46087;BME280;31824;49.648;8.640;2023-02-19T03:17:28;100741.63;;;9.56;100.00
46087;BME280;31824;49.648;8.640;2023-02-19T03:20:55;100740.72;;;9.55;100.00
46087;BME280;31824;49.648;8.640;2023-02-19T03:23:58;100743.94;;;9.53;100.00
46087;BME280;31824;49.648;8.640;2023-02-19T03:27:20;100754.44;;;9.53;100.00
46087;BME280;31824;49.648;8.640;2023-02-19T03:30:30;100742.88;;;9.51;100.00
46087;BME280;31824;49.648;8.640;2023-02-19T03:33:32;100733.91;;;9.49;100.00
46087;BME280;31824;49.648;8.640;2023-02-19T03:36:40;100742.78;;;9.33;100.00
46087;BME280;31824;49.648;8.640;2023-02-19T03:39:45;100749.97;;;9.27;100.00
46087;BME280;31824;49.648;8.640;2023-02-19T03:42:55;100752.44;;;9.25;100.00
46087;BME280;31824;49.648;8.640;2023-02-19T03:46:07;100750.22;;;9.12;100.00
46087;BME280;31824;49.648;8.640;2023-02-19T03:49:15;100755.72;;;9.07;100.00
46087;BME280;31824;49.648;8.640;2023-02-19T03:52:26;100747.53;;;9.04;100.00
46087;BME280;31824;49.648;8.640;2023-02-19T03:55:35;100746.50;;;9.10;100.00
46087;BME280;31824;49.648;8.640;2023-02-19T03:58:44;100760.78;;;9.05;100.00
46087;BME280;31824;49.648;8.640;2023-02-19T04:01:57;100755.66;;;8.98;100.00
46087;BME280;31824;49.648;8.640;2023-02-19T04:05:04;100765.41;;;8.99;100.00
46087;BME280;31824;49.648;8.640;2023-02-19T04:08:11;100773.84;;;8.97;100.00
46087;BME280;31824;49.648;8.640;2023-02-19T04:11:18;100768.09;;;8.92;100.00
46087;BME280;31824;49.648;8.640;2023-02-19T04:14:25;100769.78;;;8.91;100.00
46087;BME280;31824;49.648;8.640;2023-02-19T04:17:31;100773.00;;;8.89;100.00
46087;BME280;31824;49.648;8.640;2023-02-19T04:20:38;100773.59;;;8.86;100.00
46087;BME280;31824;49.648;8.640;2023-02-19T04:23:43;100777.94;;;8.86;100.00
46087;BME280;31824;49.648;8.640;2023-02-19T04:26:46;100784.69;;;8.84;100.00
46087;BME280;31824;49.648;8.640;2023-02-19T04:29:48;100779.38;;;8.75;100.00
46087;BME280;31824;49.648;8.640;2023-02-19T04:32:49;100779.91;;;8.64;100.00
46087;BME280;31824;49.648;8.640;2023-02-19T04:35:51;100787.25;;;8.59;100.00
46087;BME280;31824;49.648;8.640;2023-02-19T04:38:54;100777.19;;;8.55;100.00
46087;BME280;31824;49.648;8.640;2023-02-19T04:41:56;100771.31;;;8.49;100.00
46087;BME280;31824;49.648;8.640;2023-02-19T04:44:57;100776.72;;;8.43;100.00
46087;BME280;31824;49.648;8.640;2023-02-19T04:47:59;100781.06;;;8.42;100.00
46087;BME280;31824;49.648;8.640;2023-02-19T04:51:04;100796.75;;;8.42;100.00
46087;BME280;31824;49.648;8.640;2023-02-19T04:54:07;100800.28;;;8.43;100.00
46087;BME280;31824;49.648;8.640;2023-02-19T04:57:09;100803.31;;;8.46;100.00
46087;BME280;31824;49.648;8.640;2023-02-19T05:00:11;100799.91;;;8.47;100.00
46087;BME280;31824;49.648;8.640;2023-02-19T05:03:13;100803.88;;;8.43;100.00
46087;BME280;31824;49.648;8.640;2023-02-19T05:06:15;100809.84;;;8.42;100.00
46087;BME280;31824;49.648;8.640;2023-02-19T05:09:18;100802.91;;;8.43;100.00
46087;BME280;31824;49.648;8.640;2023-02-19T05:12:20;100811.56;;;8.42;100.00
46087;BME280;31824;49.648;8.640;2023-02-19T05:15:22;100808.56;;;8.39;100.00
46087;BME280;31824;49.648;8.640;2023-02-19T05:18:23;100814.59;;;8.38;100.00
46087;BME280;31824;49.648;8.640;2023-02-19T05:21:25;100816.84;;;8.35;100.00
46087;BME280;31824;49.648;8.640;2023-02-19T05:24:28;100806.78;;;8.31;100.00
46087;BME280;31824;49.648;8.640;2023-02-19T05:27:31;100823.28;;;8.30;100.00
46087;BME280;31824;49.648;8.640;2023-02-19T05:30:34;100826.06;;;8.31;100.00
46087;BME280;31824;49.648;8.640;2023-02-19T05:33:36;100825.28;;;8.32;100.00
46087;BME280;31824;49.648;8.640;2023-02-19T05:36:38;100840.09;;;8.32;100.00
46087;BME280;31824;49.648;8.640;2023-02-19T05:39:41;100836.88;;;8.34;100.00
46087;BME280;31824;49.648;8.640;2023-02-19T05:42:43;100837.63;;;8.33;100.00
46087;BME280;31824;49.648;8.640;2023-02-19T05:45:45;100843.03;;;8.35;100.00
46087;BME280;31824;49.648;8.640;2023-02-19T05:48:46;100836.72;;;8.33;100.00
46087;BME280;31824;49.648;8.640;2023-02-19T05:51:49;100845.16;;;8.30;100.00
46087;BME280;31824;49.648;8.640;2023-02-19T05:54:52;100843.13;;;8.27;100.00
46087;BME280;31824;49.648;8.640;2023-02-19T05:57:54;100840.25;;;8.33;100.00
46087;BME280;31824;49.648;8.640;2023-02-19T06:00:55;100827.56;;;8.29;100.00
46087;BME280;31824;49.648;8.640;2023-02-19T06:03:57;100837.72;;;8.26;100.00
46087;BME280;31824;49.648;8.640;2023-02-19T06:06:59;100849.88;;;8.25;100.00
46087;BME280;31824;49.648;8.640;2023-02-19T06:10:02;100860.94;;;8.23;100.00
46087;BME280;31824;49.648;8.640;2023-02-19T06:13:04;100870.44;;;8.22;100.00
46087;BME280;31824;49.648;8.640;2023-02-19T06:16:06;100874.22;;;8.17;100.00
46087;BME280;31824;49.648;8.640;2023-02-19T06:19:08;100877.81;;;8.18;100.00
46087;BME280;31824;49.648;8.640;2023-02-19T06:22:10;100882.28;;;8.19;100.00
46087;BME280;31824;49.648;8.640;2023-02-19T06:25:13;100888.78;;;8.22;100.00
46087;BME280;31824;49.648;8.640;2023-02-19T06:28:15;100890.66;;;8.23;100.00
46087;BME280;31824;49.648;8.640;2023-02-19T06:31:18;100888.59;;;8.21;100.00
46087;BME280;31824;49.648;8.640;2023-02-19T06:34:20;100900.19;;;8.23;100.00
46087;BME280;31824;49.648;8.640;2023-02-19T06:37:22;100901.28;;;8.25;100.00
46087;BME280;31824;49.648;8.640;2023-02-19T06:40:25;100893.75;;;8.28;100.00
46087;BME280;31824;49.648;8.640;2023-02-19T06:43:26;100901.81;;;8.30;100.00
46087;BME280;31824;49.648;8.640;2023-02-19T06:46:29;100898.25;;;8.29;100.00
46087;BME280;31824;49.648;8.640;2023-02-19T06:49:30;100905.69;;;8.33;100.00
46087;BME280;31824;49.648;8.640;2023-02-19T06:52:32;100916.91;;;8.32;100.00
46087;BME280;31824;49.648;8.640;2023-02-19T06:55:35;100917.69;;;8.31;100.00
46087;BME280;31824;49.648;8.640;2023-02-19T06:58:37;100918.63;;;8.32;100.00
46087;BME280;31824;49.648;8.640;2023-02-19T07:01:39;100922.56;;;8.28;100.00
46087;BME280;31824;49.648;8.640;2023-02-19T07:04:40;100922.75;;;8.30;100.00
46087;BME280;31824;49.648;8.640;2023-02-19T07:07:44;100921.06;;;8.30;100.00
46087;BME280;31824;49.648;8.640;2023-02-19T07:10:54;100924.66;;;8.23;100.00
46087;BME280;31824;49.648;8.640;2023-02-19T07:13:58;100932.88;;;8.26;100.00
46087;BME280;31824;49.648;8.640;2023-02-19T07:17:00;100923.28;;;8.34;100.00
46087;BME280;31824;49.648;8.640;2023-02-19T07:20:02;100929.59;;;8.36;100.00
46087;BME280;31824;49.648;8.640;2023-02-19T07:23:04;100929.59;;;8.36;100.00
46087;BME280;31824;49.648;8.640;2023-02-19T07:26:09;100936.69;;;8.37;100.00
46087;BME280;31824;49.648;8.640;2023-02-19T07:29:11;100928.09;;;8.38;100.00
46087;BME280;31824;49.648;8.640;2023-02-19T07:32:13;100943.22;;;8.41;100.00
46087;BME280;31824;49.648;8.640;2023-02-19T07:35:14;100937.59;;;8.45;100.00
46087;BME280;31824;49.648;8.640;2023-02-19T07:38:17;100951.75;;;8.54;100.00
46087;BME280;31824;49.648;8.640;2023-02-19T07:41:20;100949.03;;;8.61;100.00
46087;BME280;31824;49.648;8.640;2023-02-19T07:44:22;100951.59;;;8.69;100.00
46087;BME280;31824;49.648;8.640;2023-02-19T07:47:24;100954.16;;;8.76;100.00
46087;BME280;31824;49.648;8.640;2023-02-19T07:50:25;100959.88;;;8.81;100.00
46087;BME280;31824;49.648;8.640;2023-02-19T07:53:28;100960.38;;;8.85;100.00
46087;BME280;31824;49.648;8.640;2023-02-19T07:56:31;100955.50;;;8.88;100.00
46087;BME280;31824;49.648;8.640;2023-02-19T07:59:33;100955.25;;;8.94;100.00
46087;BME280;31824;49.648;8.640;2023-02-19T08:02:35;100962.28;;;9.02;100.00
46087;BME280;31824;49.648;8.640;2023-02-19T08:05:56;100963.31;;;9.11;100.00
46087;BME280;31824;49.648;8.640;2023-02-19T08:08:58;100974.38;;;9.25;100.00
46087;BME280;31824;49.648;8.640;2023-02-19T08:12:01;100964.88;;;9.34;100.00
46087;BME280;31824;49.648;8.640;2023-02-19T08:15:21;100963.19;;;9.51;100.00
46087;BME280;31824;49.648;8.640;2023-02-19T08:18:24;100958.91;;;9.60;100.00
46087;BME280;31824;49.648;8.640;2023-02-19T08:21:26;100963.31;;;9.68;100.00
46087;BME280;31824;49.648;8.640;2023-02-19T08:24:28;100967.72;;;9.76;100.00
46087;BME280;31824;49.648;8.640;2023-02-19T08:27:32;100967.75;;;9.85;100.00
46087;BME280;31824;49.648;8.640;2023-02-19T08:30:35;100978.84;;;9.83;100.00
46087;BME280;31824;49.648;8.640;2023-02-19T08:33:38;100982.34;;;9.99;100.00
46087;BME280;31824;49.648;8.640;2023-02-19T08:36:40;100982.06;;;10.05;100.00
46087;BME280;31824;49.648;8.640;2023-02-19T08:39:43;100996.19;;;10.14;100.00
46087;BME280;31824;49.648;8.640;2023-02-19T08:42:46;100997.59;;;10.10;100.00
46087;BME280;31824;49.648;8.640;2023-02-19T08:45:47;101003.16;;;10.13;100.00
46087;BME280;31824;49.648;8.640;2023-02-19T08:48:53;101016.16;;;10.21;100.00
46087;BME280;31824;49.648;8.640;2023-02-19T08:51:54;101012.03;;;10.23;100.00
46087;BME280;31824;49.648;8.640;2023-02-19T08:54:56;101023.47;;;10.32;100.00
46087;BME280;31824;49.648;8.640;2023-02-19T08:58:00;101021.56;;;10.38;100.00
46087;BME280;31824;49.648;8.640;2023-02-19T09:01:02;101027.13;;;10.41;100.00
46087;BME280;31824;49.648;8.640;2023-02-19T09:04:04;101033.19;;;10.40;100.00
46087;BME280;31824;49.648;8.640;2023-02-19T09:07:06;101040.53;;;10.36;100.00
46087;BME280;31824;49.648;8.640;2023-02-19T09:10:11;101039.19;;;10.39;100.00
46087;BME280;31824;49.648;8.640;2023-02-19T09:13:14;101046.47;;;10.42;100.00
46087;BME280;31824;49.648;8.640;2023-02-19T09:16:16;101039.03;;;10.38;100.00
46087;BME280;31824;49.648;8.640;2023-02-19T09:19:21;101041.47;;;10.36;100.00
46087;BME280;31824;49.648;8.640;2023-02-19T09:22:22;101041.84;;;10.48;100.00
46087;BME280;31824;49.648;8.640;2023-02-19T09:25:25;101052.50;;;10.50;100.00
46087;BME280;31824;49.648;8.640;2023-02-19T09:28:28;101047.09;;;10.48;100.00
46087;BME280;31824;49.648;8.640;2023-02-19T09:31:30;101057.78;;;10.50;100.00
46087;BME280;31824;49.648;8.640;2023-02-19T09:34:33;101053.09;;;10.38;100.00
46087;BME280;31824;49.648;8.640;2023-02-19T09:37:34;101061.81;;;10.55;100.00
46087;BME280;31824;49.648;8.640;2023-02-19T09:40:37;101057.25;;;10.61;100.00
46087;BME280;31824;49.648;8.640;2023-02-19T09:43:41;101067.94;;;10.71;100.00
46087;BME280;31824;49.648;8.640;2023-02-19T09:46:45;101062.13;;;10.83;100.00
46087;BME280;31824;49.648;8.640;2023-02-19T09:49:48;101070.28;;;10.77;100.00
46087;BME280;31824;49.648;8.640;2023-02-19T09:52:54;101056.06;;;10.75;100.00
46087;BME280;31824;49.648;8.640;2023-02-19T09:55:58;101052.56;;;10.92;100.00
46087;BME280;31824;49.648;8.640;2023-02-19T09:59:01;101070.06;;;11.00;100.00
46087;BME280;31824;49.648;8.640;2023-02-19T10:02:04;101065.00;;;11.02;100.00
46087;BME280;31824;49.648;8.640;2023-02-19T10:05:13;101075.44;;;11.26;100.00
46087;BME280;31824;49.648;8.640;2023-02-19T10:08:18;101078.13;;;11.02;100.00
46087;BME280;31824;49.648;8.640;2023-02-19T10:11:21;101062.06;;;11.07;100.00
46087;BME280;31824;49.648;8.640;2023-02-19T10:14:30;101061.16;;;11.24;100.00
46087;BME280;31824;49.648;8.640;2023-02-19T10:17:33;101075.22;;;11.07;100.00
46087;BME280;31824;49.648;8.640;2023-02-19T10:20:36;101080.38;;;11.32;100.00
46087;BME280;31824;49.648;8.640;2023-02-19T10:23:38;101078.16;;;11.10;100.00
46087;BME280;31824;49.648;8.640;2023-02-19T10:26:41;101083.94;;;11.24;100.00
46087;BME280;31824;49.648;8.640;2023-02-19T10:29:46;101085.72;;;11.67;100.00
46087;BME280;31824;49.648;8.640;2023-02-19T10:33:04;101092.97;;;11.52;100.00
46087;BME280;31824;49.648;8.640;2023-02-19T10:36:24;101102.41;;;11.41;100.00
46087;BME280;31824;49.648;8.640;2023-02-19T10:39:37;101084.53;;;11.21;100.00
46087;BME280;31824;49.648;8.640;2023-02-19T10:42:44;101099.56;;;11.31;100.00
46087;BME280;31824;49.648;8.640;2023-02-19T10:45:48;101098.13;;;11.77;100.00
46087;BME280;31824;49.648;8.640;2023-02-19T10:48:52;101105.56;;;11.72;100.00
46087;BME280;31824;49.648;8.640;2023-02-19T10:51:56;101094.88;;;11.79;100.00
46087;BME280;31824;49.648;8.640;2023-02-19T10:55:27;101094.69;;;11.69;100.00
46087;BME280;31824;49.648;8.640;2023-02-19T10:58:29;101100.41;;;11.65;100.00
46087;BME280;31824;49.648;8.640;2023-02-19T11:01:38;101112.31;;;11.44;100.00
46087;BME280;31824;49.648;8.640;2023-02-19T11:05:03;101115.44;;;11.66;100.00
46087;BME280;31824;49.648;8.640;2023-02-19T11:08:20;101117.94;;;11.73;100.00
46087;BME280;31824;49.648;8.640;2023-02-19T11:11:24;101137.91;;;11.71;100.00
46087;BME280;31824;49.648;8.640;2023-02-19T11:14:28;101136.44;;;11.48;100.00
46087;BME280;31824;49.648;8.640;2023-02-19T11:17:33;101127.81;;;11.58;100.00
46087;BME280;31824;49.648;8.640;2023-02-19T11:20:35;101125.50;;;11.70;100.00
46087;BME280;31824;49.648;8.640;2023-02-19T11:23:42;101135.09;;;11.61;100.00
46087;BME280;31824;49.648;8.640;2023-02-19T11:26:45;101135.59;;;11.65;100.00
46087;BME280;31824;49.648;8.640;2023-02-19T11:29:47;101124.75;;;11.71;100.00
46087;BME280;31824;49.648;8.640;2023-02-19T11:32:50;101133.09;;;11.67;100.00
46087;BME280;31824;49.648;8.640;2023-02-19T11:35:57;101123.22;;;11.82;100.00
46087;BME280;31824;49.648;8.640;2023-02-19T11:39:19;101106.47;;;11.81;100.00
46087;BME280;31824;49.648;8.640;2023-02-19T11:42:47;101111.78;;;12.16;100.00
46087;BME280;31824;49.648;8.640;2023-02-19T11:45:59;101108.84;;;12.48;100.00
46087;BME280;31824;49.648;8.640;2023-02-19T11:49:13;101102.75;;;12.58;100.00
46087;BME280;31824;49.648;8.640;2023-02-19T11:52:28;101099.53;;;12.17;100.00
46087;BME280;31824;49.648;8.640;2023-02-19T11:55:44;101112.91;;;12.01;100.00
46087;BME280;31824;49.648;8.640;2023-02-19T11:58:57;101096.59;;;11.96;100.00
46087;BME280;31824;49.648;8.640;2023-02-19T12:05:45;101124.28;;;10.57;100.00
46087;BME280;31824;49.648;8.640;2023-02-19T12:12:27;101150.75;;;9.47;100.00
46087;BME280;31824;49.648;8.640;2023-02-19T12:15:55;101140.22;;;9.70;100.00
46087;BME280;31824;49.648;8.640;2023-02-19T12:19:09;101131.44;;;10.26;100.00
46087;BME280;31824;49.648;8.640;2023-02-19T12:22:26;101124.19;;;10.89;100.00
46087;BME280;31824;49.648;8.640;2023-02-19T12:25:37;101130.97;;;11.29;100.00
46087;BME280;31824;49.648;8.640;2023-02-19T12:28:54;101128.22;;;11.37;100.00
46087;BME280;31824;49.648;8.640;2023-02-19T12:32:17;101124.22;;;11.49;100.00
46087;BME280;31824;49.648;8.640;2023-02-19T12:35:39;101124.03;;;11.98;100.00
46087;BME280;31824;49.648;8.640;2023-02-19T12:38:51;101111.47;;;11.87;100.00
46087;BME280;31824;49.648;8.640;2023-02-19T12:42:03;101104.03;;;12.36;100.00
46087;BME280;31824;49.648;8.640;2023-02-19T12:45:15;101110.53;;;12.39;100.00
46087;BME280;31824;49.648;8.640;2023-02-19T12:48:26;101103.28;;;12.19;100.00
46087;BME280;31824;49.648;8.640;2023-02-19T12:51:37;101116.00;;;12.95;100.00
46087;BME280;31824;49.648;8.640;2023-02-19T12:54:43;101124.00;;;13.05;100.00
46087;BME280;31824;49.648;8.640;2023-02-19T12:57:46;101134.38;;;12.49;100.00
46087;BME280;31824;49.648;8.640;2023-02-19T13:00:52;101119.22;;;12.38;100.00
46087;BME280;31824;49.648;8.640;2023-02-19T13:04:13;101113.31;;;12.58;100.00
46087;BME280;31824;49.648;8.640;2023-02-19T13:07:21;101100.78;;;12.21;100.00
46087;BME280;31824;49.648;8.640;2023-02-19T13:10:29;101111.28;;;12.47;100.00
46087;BME280;31824;49.648;8.640;2023-02-19T13:13:35;101103.44;;;12.29;100.00
46087;BME280;31824;49.648;8.640;2023-02-19T13:16:41;101098.94;;;12.28;100.00
46087;BME280;31824;49.648;8.640;2023-02-19T13:19:47;101095.66;;;12.48;100.00
46087;BME280;31824;49.648;8.640;2023-02-19T13:22:52;101098.72;;;12.53;100.00
46087;BME280;31824;49.648;8.640;2023-02-19T13:26:37;101089.59;;;12.49;100.00
46087;BME280;31824;49.648;8.640;2023-02-19T13:29:53;101087.91;;;12.50;100.00
46087;BME280;31824;49.648;8.640;2023-02-19T13:33:02;101087.28;;;12.44;100.00
46087;BME280;31824;49.648;8.640;2023-02-19T13:36:11;101082.94;;;12.44;100.00
46087;BME280;31824;49.648;8.640;2023-02-19T13:39:16;101093.38;;;12.08;100.00
46087;BME280;31824;49.648;8.640;2023-02-19T13:42:25;101077.09;;;12.03;100.00
46087;BME280;31824;49.648;8.640;2023-02-19T13:45:31;101092.91;;;12.12;100.00
46087;BME280;31824;49.648;8.640;2023-02-19T13:48:36;101094.56;;;12.29;100.00
46087;BME280;31824;49.648;8.640;2023-02-19T13:51:46;101097.03;;;12.45;100.00
46087;BME280;31824;49.648;8.640;2023-02-19T13:54:49;101091.25;;;12.58;100.00
46087;BME280;31824;49.648;8.640;2023-02-19T13:57:53;101077.53;;;12.34;100.00
46087;BME280;31824;49.648;8.640;2023-02-19T14:00:54;101101.56;;;12.20;100.00
46087;BME280;31824;49.648;8.640;2023-02-19T14:04:07;101111.03;;;12.18;100.00
46087;BME280;31824;49.648;8.640;2023-02-19T14:07:34;101112.72;;;12.17;100.00
46087;BME280;31824;49.648;8.640;2023-02-19T14:10:55;101110.53;;;12.39;100.00
46087;BME280;31824;49.648;8.640;2023-02-19T14:14:24;101124.50;;;12.38;100.00
46087;BME280;31824;49.648;8.640;2023-02-19T14:17:28;101121.53;;;12.44;100.00
46087;BME280;31824;49.648;8.640;2023-02-19T14:20:42;101129.44;;;12.09;100.00
46087;BME280;31824;49.648;8.640;2023-02-19T14:23:44;101133.34;;;12.04;100.00
46087;BME280;31824;49.648;8.640;2023-02-19T14:26:55;101125.09;;;12.01;100.00
46087;BME280;31824;49.648;8.640;2023-02-19T14:29:59;101131.31;;;12.01;100.00
46087;BME280;31824;49.648;8.640;2023-02-19T14:33:02;101142.31;;;12.06;100.00
46087;BME280;31824;49.648;8.640;2023-02-19T14:36:17;101131.31;;;12.10;100.00
46087;BME280;31824;49.648;8.640;2023-02-19T14:39:22;101136.88;;;12.13;100.00
46087;BME280;31824;49.648;8.640;2023-02-19T14:42:26;101136.59;;;12.19;100.00
46087;BME280;31824;49.648;8.640;2023-02-19T14:45:39;101147.28;;;12.11;100.00
46087;BME280;31824;49.648;8.640;2023-02-19T14:48:45;101143.38;;;11.99;100.00
46087;BME280;31824;49.648;8.640;2023-02-19T14:51:50;101162.47;;;12.05;100.00
46087;BME280;31824;49.648;8.640;2023-02-19T14:54:56;101165.81;;;11.87;100.00
46087;BME280;31824;49.648;8.640;2023-02-19T14:58:02;101160.22;;;11.92;100.00
46087;BME280;31824;49.648;8.640;2023-02-19T15:01:24;101162.25;;;11.86;100.00
46087;BME280;31824;49.648;8.640;2023-02-19T15:04:28;101162.56;;;11.80;100.00
46087;BME280;31824;49.648;8.640;2023-02-19T15:07:32;101164.72;;;11.85;100.00
46087;BME280;31824;49.648;8.640;2023-02-19T15:10:35;101163.75;;;11.66;100.00
46087;BME280;31824;49.648;8.640;2023-02-19T15:13:38;101167.78;;;11.63;100.00
46087;BME280;31824;49.648;8.640;2023-02-19T15:16:47;101163.72;;;11.58;100.00
46087;BME280;31824;49.648;8.640;2023-02-19T15:19:51;101163.28;;;11.62;100.00
46087;BME280;31824;49.648;8.640;2023-02-19T15:22:54;101163.72;;;11.58;100.00
46087;BME280;31824;49.648;8.640;2023-02-19T15:25:57;101173.34;;;11.57;100.00
46087;BME280;31824;49.648;8.640;2023-02-19T15:29:00;101171.78;;;11.51;100.00
46087;BME280;31824;49.648;8.640;2023-02-19T15:32:15;101184.94;;;11.51;100.00
46087;BME280;31824;49.648;8.640;2023-02-19T15:35:19;101188.78;;;11.54;100.00
46087;BME280;31824;49.648;8.640;2023-02-19T15:38:22;101195.44;;;11.51;100.00
46087;BME280;31824;49.648;8.640;2023-02-19T15:41:26;101198.09;;;11.51;100.00
46087;BME280;31824;49.648;8.640;2023-02-19T15:44:36;101196.06;;;11.48;100.00
46087;BME280;31824;49.648;8.640;2023-02-19T15:47:43;101187.06;;;11.46;100.00
46087;BME280;31824;49.648;8.640;2023-02-19T15:50:48;101183.19;;;11.42;100.00
46087;BME280;31824;49.648;8.640;2023-02-19T15:53:55;101187.97;;;11.38;100.00
46087;BME280;31824;49.648;8.640;2023-02-19T15:57:01;101193.53;;;11.41;100.00
46087;BME280;31824;49.648;8.640;2023-02-19T16:00:12;101192.16;;;11.36;100.00
46087;BME280;31824;49.648;8.640;2023-02-19T16:03:19;101199.69;;;11.32;100.00
46087;BME280;31824;49.648;8.640;2023-02-19T16:06:22;101197.94;;;11.24;100.00
46087;BME280;31824;49.648;8.640;2023-02-19T16:09:28;101206.00;;;11.26;100.00
46087;BME280;31824;49.648;8.640;2023-02-19T16:12:31;101192.38;;;11.21;100.00
46087;BME280;31824;49.648;8.640;2023-02-19T16:15:33;101192.34;;;11.12;100.00
46087;BME280;31824;49.648;8.640;2023-02-19T16:18:36;101175.47;;;11.10;100.00